Neusiedl am See, Austria
Current Conditions -  °F | °C
As of 1:50 AM on Tuesday 23 Dec 2014 (Local Time) from LOWW Reporting Station
Clear Clear  
Wind Chill: 50°   Ceiling: Unl
Heat Index: 50°   Visibility: 6mi
Dew Point: 36°   Wind: 16mph
Humidity: 58%   Direction: 280°W
Pressure: 30.12"   Gusts: NA
Location:  47.95°N, 16.84°E
Report Text: LOWW 222350Z 28014KT CAVOK 10/02 Q1020 NOSIG
Loading
Personal Weather Stations






























Interactive Weather Map New forecast layout! Learn more

10-Day Weather Forecast

Advertisements
Track Severe Weather on mobile